createdAt,value
2022-11-29T00:00:06.151Z,1002.49
2022-11-29T00:01:06.210Z,1002.46
2022-11-29T00:02:06.329Z,1002.49
2022-11-29T00:03:06.389Z,1002.50
2022-11-29T00:04:06.358Z,1002.50
2022-11-29T00:05:06.362Z,1002.55
2022-11-29T00:06:06.500Z,1002.48
2022-11-29T00:07:06.508Z,1002.49
2022-11-29T00:08:06.238Z,1002.47
2022-11-29T00:09:06.612Z,1002.51
2022-11-29T00:10:06.327Z,1002.46
2022-11-29T00:11:06.737Z,1002.48
2022-11-29T00:12:06.197Z,1002.54
2022-11-29T00:13:06.765Z,1002.46
2022-11-29T00:14:06.138Z,1002.48
2022-11-29T00:15:06.828Z,1002.49
2022-11-29T00:16:06.155Z,1002.54
2022-11-29T00:17:06.230Z,1002.48
2022-11-29T00:18:06.256Z,1002.48
2022-11-29T00:19:07.006Z,1002.50
2022-11-29T00:20:06.896Z,1002.59
2022-11-29T00:21:07.084Z,1002.55
2022-11-29T00:22:06.226Z,1002.51
2022-11-29T00:23:06.617Z,1002.54
2022-11-29T00:24:07.033Z,1002.49
2022-11-29T00:25:06.937Z,1002.54
2022-11-29T00:26:06.834Z,1002.58
2022-11-29T00:27:06.994Z,1002.56
2022-11-29T00:28:06.897Z,1002.62
2022-11-29T00:29:06.801Z,1002.61
2022-11-29T00:30:06.961Z,1002.59
2022-11-29T00:31:06.907Z,1002.60
2022-11-29T00:32:06.765Z,1002.57
2022-11-29T00:33:06.062Z,1002.57
2022-11-29T00:34:05.933Z,1002.56
2022-11-29T00:35:09.649Z,1002.56
2022-11-29T00:36:05.952Z,1002.57
2022-11-29T00:37:05.922Z,1002.53
2022-11-29T00:38:05.953Z,1002.59
2022-11-29T00:39:05.962Z,1002.57
2022-11-29T00:40:06.114Z,1002.60
2022-11-29T00:41:06.132Z,1002.60
2022-11-29T00:42:06.130Z,1002.56
2022-11-29T00:43:05.962Z,1002.52
2022-11-29T00:44:05.940Z,1002.62
2022-11-29T00:45:05.951Z,1002.59
2022-11-29T00:46:06.001Z,1002.59
2022-11-29T00:47:05.959Z,1002.58
2022-11-29T00:48:06.093Z,1002.54
2022-11-29T00:49:05.860Z,1002.58
2022-11-29T00:50:07.287Z,1002.52
2022-11-29T00:51:05.821Z,1002.53
2022-11-29T00:52:06.268Z,1002.53
2022-11-29T00:53:05.820Z,1002.52
2022-11-29T00:54:05.799Z,1002.52
2022-11-29T00:55:05.798Z,1002.55
2022-11-29T00:56:05.809Z,1002.56
2022-11-29T00:57:05.830Z,1002.57
2022-11-29T00:58:05.829Z,1002.56
2022-11-29T00:59:05.758Z,1002.58
2022-11-29T01:00:05.838Z,1002.55
2022-11-29T01:01:05.883Z,1002.58
2022-11-29T01:02:05.939Z,1002.60
2022-11-29T01:03:05.865Z,1002.59
2022-11-29T01:04:05.909Z,1002.57
2022-11-29T01:05:05.776Z,1002.57
2022-11-29T01:06:05.877Z,1002.59
2022-11-29T01:07:05.965Z,1002.56
2022-11-29T01:08:05.897Z,1002.59
2022-11-29T01:09:05.914Z,1002.59
2022-11-29T01:10:05.910Z,1002.59
2022-11-29T01:11:05.916Z,1002.58
2022-11-29T01:12:05.763Z,1002.52
2022-11-29T01:13:05.732Z,1002.62
2022-11-29T01:14:05.732Z,1002.64
2022-11-29T01:15:05.671Z,1002.55
2022-11-29T01:16:05.752Z,1002.60
2022-11-29T01:17:05.979Z,1002.56
2022-11-29T01:18:05.754Z,1002.60
2022-11-29T01:19:05.974Z,1002.63
2022-11-29T01:20:06.013Z,1002.59
2022-11-29T01:21:05.982Z,1002.63
2022-11-29T01:22:05.992Z,1002.59
2022-11-29T01:23:05.623Z,1002.67
2022-11-29T01:24:06.218Z,1002.62
2022-11-29T01:25:06.222Z,1002.64
2022-11-29T01:26:05.701Z,1002.65
2022-11-29T01:27:05.822Z,1002.65
2022-11-29T01:28:06.232Z,1002.69
2022-11-29T01:29:05.622Z,1002.73
2022-11-29T01:30:05.832Z,1002.69
2022-11-29T01:31:06.311Z,1002.68
2022-11-29T01:32:06.261Z,1002.72
2022-11-29T01:33:06.280Z,1002.68
2022-11-29T01:34:05.514Z,1002.73
2022-11-29T01:35:05.534Z,1002.71
2022-11-29T01:36:05.524Z,1002.75
2022-11-29T01:37:05.533Z,1002.70
2022-11-29T01:38:05.563Z,1002.73
2022-11-29T01:39:06.939Z,1002.72
2022-11-29T01:40:05.493Z,1002.71
2022-11-29T01:41:05.509Z,1002.71
2022-11-29T01:42:05.509Z,1002.71
2022-11-29T01:43:05.518Z,1002.72
2022-11-29T01:44:05.527Z,1002.72
2022-11-29T01:45:05.529Z,1002.66
2022-11-29T01:46:05.599Z,1002.68
2022-11-29T01:47:05.557Z,1002.74
2022-11-29T01:48:05.487Z,1002.67
2022-11-29T01:49:05.538Z,1002.68
2022-11-29T01:50:05.409Z,1002.71
2022-11-29T01:51:05.407Z,1002.71
2022-11-29T01:52:05.406Z,1002.70
2022-11-29T01:53:05.589Z,1002.74
2022-11-29T01:54:05.615Z,1002.71
2022-11-29T01:55:05.616Z,1002.78
2022-11-29T01:56:05.386Z,1002.74
2022-11-29T01:57:05.430Z,1002.78
2022-11-29T01:58:05.377Z,1002.81
2022-11-29T01:59:05.364Z,1002.79
2022-11-29T02:00:05.482Z,1002.83
2022-11-29T02:01:05.470Z,1002.81
2022-11-29T02:02:05.515Z,1002.84
2022-11-29T02:03:05.471Z,1002.83
2022-11-29T02:04:05.465Z,1002.82
2022-11-29T02:05:05.347Z,1002.80
2022-11-29T02:06:05.489Z,1002.85
2022-11-29T02:07:05.658Z,1002.82
2022-11-29T02:08:05.453Z,1002.81
2022-11-29T02:09:05.283Z,1002.82
2022-11-29T02:10:05.922Z,1002.84
2022-11-29T02:11:06.044Z,1002.83
2022-11-29T02:12:05.513Z,1002.80
2022-11-29T02:13:05.956Z,1002.81
2022-11-29T02:14:05.982Z,1002.84
2022-11-29T02:15:05.572Z,1002.82
2022-11-29T02:16:05.982Z,1002.79
2022-11-29T02:17:05.234Z,1002.85
2022-11-29T02:18:05.481Z,1002.79
2022-11-29T02:19:05.972Z,1002.82
2022-11-29T02:20:06.058Z,1002.82
2022-11-29T02:21:05.208Z,1002.82
2022-11-29T02:22:05.782Z,1002.88
2022-11-29T02:23:05.999Z,1002.86
2022-11-29T02:24:06.010Z,1002.88
2022-11-29T02:25:05.210Z,1002.89
2022-11-29T02:26:06.019Z,1002.84
2022-11-29T02:27:06.020Z,1002.84
2022-11-29T02:28:05.530Z,1002.90
2022-11-29T02:29:05.239Z,1002.85
2022-11-29T02:30:06.610Z,1002.90
2022-11-29T02:31:05.280Z,1002.82
2022-11-29T02:32:05.478Z,1002.86
2022-11-29T02:33:05.237Z,1002.89
2022-11-29T02:34:05.467Z,1002.88
2022-11-29T02:35:05.546Z,1002.89
2022-11-29T02:36:05.477Z,1002.85
2022-11-29T02:37:11.281Z,1002.86
2022-11-29T02:38:05.507Z,1002.90
2022-11-29T02:39:05.755Z,1002.89
2022-11-29T02:40:05.106Z,1002.87
2022-11-29T02:41:05.115Z,1002.89
2022-11-29T02:42:05.057Z,1002.89
2022-11-29T02:43:05.106Z,1002.98
2022-11-29T02:44:05.037Z,1002.96
2022-11-29T02:45:05.128Z,1002.93
2022-11-29T02:46:05.374Z,1003.00
2022-11-29T02:47:05.336Z,1002.98
2022-11-29T02:48:05.366Z,1003.00
2022-11-29T02:49:05.005Z,1002.99
2022-11-29T02:50:05.006Z,1002.97
2022-11-29T02:51:04.994Z,1002.97
2022-11-29T02:52:04.985Z,1003.02
2022-11-29T02:53:05.182Z,1003.03
2022-11-29T02:54:04.979Z,1003.02
2022-11-29T02:55:04.974Z,1003.05
2022-11-29T02:56:04.994Z,1003.05
2022-11-29T02:57:04.979Z,1003.01
2022-11-29T02:58:05.390Z,1003.10
2022-11-29T02:59:05.053Z,1003.09
2022-11-29T03:00:04.981Z,1003.05
2022-11-29T03:01:04.972Z,1003.04
2022-11-29T03:02:05.298Z,1003.08
2022-11-29T03:03:05.246Z,1003.09
2022-11-29T03:04:05.251Z,1003.06
2022-11-29T03:05:05.051Z,1003.12
2022-11-29T03:06:04.880Z,1003.15
2022-11-29T03:07:04.903Z,1003.17
2022-11-29T03:08:04.870Z,1003.13
2022-11-29T03:09:04.892Z,1003.18
2022-11-29T03:10:04.897Z,1003.15
2022-11-29T03:11:04.998Z,1003.22
2022-11-29T03:12:04.840Z,1003.23
2022-11-29T03:13:04.961Z,1003.22
2022-11-29T03:14:05.109Z,1003.20
2022-11-29T03:15:04.990Z,1003.21
2022-11-29T03:16:04.848Z,1003.22
2022-11-29T03:17:04.832Z,1003.26
2022-11-29T03:18:04.829Z,1003.22
2022-11-29T03:19:04.836Z,1003.27
2022-11-29T03:20:04.823Z,1003.26
2022-11-29T03:21:04.797Z,1003.28
2022-11-29T03:22:04.798Z,1003.29
2022-11-29T03:23:04.780Z,1003.29
2022-11-29T03:24:04.778Z,1003.31
2022-11-29T03:25:04.781Z,1003.34
2022-11-29T03:26:04.757Z,1003.35
2022-11-29T03:27:04.752Z,1003.34
2022-11-29T03:28:04.746Z,1003.34
2022-11-29T03:29:04.737Z,1003.32
2022-11-29T03:30:04.766Z,1003.34
2022-11-29T03:31:04.749Z,1003.38
2022-11-29T03:32:05.027Z,1003.37
2022-11-29T03:33:04.696Z,1003.39
2022-11-29T03:34:04.768Z,1003.44
2022-11-29T03:35:04.685Z,1003.44
2022-11-29T03:36:05.335Z,1003.37
2022-11-29T03:37:04.676Z,1003.44
2022-11-29T03:38:04.673Z,1003.41
2022-11-29T03:39:04.674Z,1003.48
2022-11-29T03:40:05.304Z,1003.43
2022-11-29T03:41:05.317Z,1003.46
2022-11-29T03:42:05.324Z,1003.49
2022-11-29T03:43:04.653Z,1003.49
2022-11-29T03:44:04.656Z,1003.46
2022-11-29T03:45:04.753Z,1003.45
2022-11-29T03:46:04.633Z,1003.48
2022-11-29T03:47:04.613Z,1003.43
2022-11-29T03:48:04.647Z,1003.48
2022-11-29T03:49:04.626Z,1003.48
2022-11-29T03:50:04.593Z,1003.50
2022-11-29T03:51:04.751Z,1003.47
2022-11-29T03:52:04.581Z,1003.55
2022-11-29T03:53:04.970Z,1003.53
2022-11-29T03:54:05.194Z,1003.60
2022-11-29T03:55:04.604Z,1003.53
2022-11-29T03:56:04.841Z,1003.52
2022-11-29T03:57:05.191Z,1003.53
2022-11-29T03:58:05.201Z,1003.59
2022-11-29T03:59:05.421Z,1003.57
2022-11-29T04:00:04.830Z,1003.57
2022-11-29T04:01:04.530Z,1003.54
2022-11-29T04:02:05.430Z,1003.49
2022-11-29T04:03:05.436Z,1003.50
2022-11-29T04:04:05.359Z,1003.55
2022-11-29T04:05:05.521Z,1003.57
2022-11-29T04:06:05.428Z,1003.52
2022-11-29T04:07:05.328Z,1003.57
2022-11-29T04:08:05.498Z,1003.59
2022-11-29T04:09:04.697Z,1003.59
2022-11-29T04:10:05.297Z,1003.58
2022-11-29T04:11:05.458Z,1003.58
2022-11-29T04:12:04.460Z,1003.62
2022-11-29T04:13:04.428Z,1003.60
2022-11-29T04:14:04.447Z,1003.61
2022-11-29T04:15:04.428Z,1003.62
2022-11-29T04:16:04.445Z,1003.56
2022-11-29T04:17:04.396Z,1003.58
2022-11-29T04:18:04.435Z,1003.63
2022-11-29T04:19:04.395Z,1003.54
2022-11-29T04:20:04.479Z,1003.57
2022-11-29T04:21:04.375Z,1003.67
2022-11-29T04:22:04.456Z,1003.68
2022-11-29T04:23:04.404Z,1003.63
2022-11-29T04:24:04.476Z,1003.61
2022-11-29T04:25:04.624Z,1003.58
2022-11-29T04:26:04.644Z,1003.58
2022-11-29T04:27:04.427Z,1003.64
2022-11-29T04:28:04.644Z,1003.61
2022-11-29T04:29:04.452Z,1003.63
2022-11-29T04:30:04.807Z,1003.65
2022-11-29T04:31:04.349Z,1003.64
2022-11-29T04:32:04.875Z,1003.69
2022-11-29T04:33:04.884Z,1003.73
2022-11-29T04:34:04.897Z,1003.72
2022-11-29T04:35:05.123Z,1003.71
2022-11-29T04:36:05.113Z,1003.72
2022-11-29T04:37:04.302Z,1003.76
2022-11-29T04:38:05.131Z,1003.72
2022-11-29T04:39:04.724Z,1003.78
2022-11-29T04:40:05.133Z,1003.79
2022-11-29T04:41:04.531Z,1003.82
2022-11-29T04:42:04.242Z,1003.82
2022-11-29T04:43:05.203Z,1003.78
2022-11-29T04:44:05.102Z,1003.79
2022-11-29T04:45:04.350Z,1003.88
2022-11-29T04:46:05.221Z,1003.85
2022-11-29T04:47:05.070Z,1003.84
2022-11-29T04:48:05.232Z,1003.88
2022-11-29T04:49:05.181Z,1003.87
2022-11-29T04:50:05.042Z,1003.86
2022-11-29T04:51:04.182Z,1003.93
2022-11-29T04:52:05.100Z,1003.91
2022-11-29T04:53:05.010Z,1003.91
2022-11-29T04:54:05.170Z,1003.94
2022-11-29T04:55:05.070Z,1003.91
2022-11-29T04:56:04.221Z,1003.93
2022-11-29T04:57:04.179Z,1003.96
2022-11-29T04:58:04.441Z,1004.02
2022-11-29T04:59:04.176Z,1004.04
2022-11-29T05:00:04.269Z,1004.07
2022-11-29T05:01:04.260Z,1004.02
2022-11-29T05:02:04.238Z,1004.02
2022-11-29T05:03:04.121Z,1004.07
2022-11-29T05:04:04.088Z,1004.08
2022-11-29T05:05:04.096Z,1004.15
2022-11-29T05:06:04.069Z,1004.09
2022-11-29T05:07:04.068Z,1004.13
2022-11-29T05:08:04.066Z,1004.17
2022-11-29T05:09:04.048Z,1004.16
2022-11-29T05:10:04.066Z,1004.19
2022-11-29T05:11:04.035Z,1004.18
2022-11-29T05:12:04.034Z,1004.14
2022-11-29T05:13:04.025Z,1004.16
2022-11-29T05:14:04.016Z,1004.15
2022-11-29T05:15:04.036Z,1004.24
2022-11-29T05:16:04.048Z,1004.23
2022-11-29T05:17:04.002Z,1004.26
2022-11-29T05:18:03.993Z,1004.22
2022-11-29T05:20:30.119Z,1004.23
2022-11-29T05:21:29.944Z,1004.25
2022-11-29T05:22:29.929Z,1004.22
2022-11-29T05:23:29.938Z,1004.25
2022-11-29T05:24:29.918Z,1004.28
2022-11-29T05:25:29.932Z,1004.32
2022-11-29T05:26:29.904Z,1004.23
2022-11-29T05:27:29.899Z,1004.21
2022-11-29T05:28:29.897Z,1004.26
2022-11-29T05:29:29.998Z,1004.26
2022-11-29T05:30:30.427Z,1004.31
2022-11-29T05:31:29.916Z,1004.27
2022-11-29T05:32:29.868Z,1004.31
2022-11-29T05:33:29.856Z,1004.31
2022-11-29T05:34:34.934Z,1004.36
2022-11-29T05:35:30.522Z,1004.38
2022-11-29T05:36:29.856Z,1004.42
2022-11-29T05:37:29.855Z,1004.41
2022-11-29T05:38:29.852Z,1004.44
2022-11-29T05:39:29.840Z,1004.39
2022-11-29T05:40:29.864Z,1004.42
2022-11-29T05:41:29.804Z,1004.48
2022-11-29T05:42:30.083Z,1004.49
2022-11-29T05:43:29.836Z,1004.46
2022-11-29T05:44:30.105Z,1004.51
2022-11-29T05:45:29.905Z,1004.52
2022-11-29T05:46:30.017Z,1004.60
2022-11-29T05:47:31.527Z,1004.51
2022-11-29T05:48:29.764Z,1004.53
2022-11-29T05:49:29.753Z,1004.56
2022-11-29T05:50:29.761Z,1004.55
2022-11-29T05:51:29.743Z,1004.59
2022-11-29T05:52:29.732Z,1004.58
2022-11-29T05:53:29.731Z,1004.58
2022-11-29T05:54:29.714Z,1004.59
2022-11-29T05:55:29.762Z,1004.57
2022-11-29T05:56:30.382Z,1004.60
2022-11-29T05:57:29.780Z,1004.60
2022-11-29T05:58:30.789Z,1004.60
2022-11-29T05:59:29.691Z,1004.61
2022-11-29T06:00:29.715Z,1004.66
2022-11-29T06:01:29.698Z,1004.65
2022-11-29T06:02:29.717Z,1004.68
2022-11-29T06:03:29.670Z,1004.69
2022-11-29T06:04:29.649Z,1004.71
2022-11-29T06:05:29.654Z,1004.70
2022-11-29T06:06:29.660Z,1004.64
2022-11-29T06:07:29.674Z,1004.75
2022-11-29T06:08:29.892Z,1004.75
2022-11-29T06:09:29.840Z,1004.72
2022-11-29T06:10:29.788Z,1004.70
2022-11-29T06:11:29.637Z,1004.75
2022-11-29T06:12:29.598Z,1004.79
2022-11-29T06:13:29.887Z,1004.78
2022-11-29T06:14:29.590Z,1004.82
2022-11-29T06:15:29.897Z,1004.82
2022-11-29T06:16:29.766Z,1004.84
2022-11-29T06:17:33.021Z,1004.82
2022-11-29T06:18:29.576Z,1004.81
2022-11-29T06:19:29.580Z,1004.86
2022-11-29T06:20:29.546Z,1004.86
2022-11-29T06:21:29.667Z,1004.87
2022-11-29T06:22:29.536Z,1004.85
2022-11-29T06:23:29.529Z,1004.93
2022-11-29T06:24:29.980Z,1004.90
2022-11-29T06:25:29.514Z,1004.91
2022-11-29T06:26:29.514Z,1004.87
2022-11-29T06:27:29.508Z,1004.90
2022-11-29T06:28:29.495Z,1004.90
2022-11-29T06:29:29.497Z,1004.90
2022-11-29T06:30:29.544Z,1004.87
2022-11-29T06:31:29.564Z,1004.88
2022-11-29T06:32:29.469Z,1004.89
2022-11-29T06:33:29.483Z,1004.92
2022-11-29T06:34:31.033Z,1004.85
2022-11-29T06:35:29.454Z,1004.90
2022-11-29T06:36:29.462Z,1004.92
2022-11-29T06:37:29.445Z,1004.87
2022-11-29T06:38:29.433Z,1004.88
2022-11-29T06:39:29.431Z,1004.97
2022-11-29T06:40:29.420Z,1004.96
2022-11-29T06:41:29.430Z,1004.97
2022-11-29T06:42:29.439Z,1004.95
2022-11-29T06:43:29.508Z,1005.02
2022-11-29T06:44:29.391Z,1005.05
2022-11-29T06:45:29.419Z,1005.02
2022-11-29T06:46:29.445Z,1005.03
2022-11-29T06:47:29.384Z,1005.01
2022-11-29T06:48:29.518Z,1005.08
2022-11-29T06:49:29.520Z,1005.07
2022-11-29T06:50:29.389Z,1005.10
2022-11-29T06:51:29.359Z,1005.12
2022-11-29T06:52:29.650Z,1005.17
2022-11-29T06:53:29.339Z,1005.14
2022-11-29T06:54:29.348Z,1005.13
2022-11-29T06:55:29.319Z,1005.12
2022-11-29T06:56:29.330Z,1005.24
2022-11-29T06:57:29.578Z,1005.23
2022-11-29T06:58:34.429Z,1005.24
2022-11-29T06:59:29.596Z,1005.28
2022-11-29T07:00:29.371Z,1005.18
2022-11-29T07:01:29.367Z,1005.24
2022-11-29T07:02:29.652Z,1005.31
2022-11-29T07:03:29.264Z,1005.23
2022-11-29T07:04:29.266Z,1005.25
2022-11-29T07:05:29.837Z,1005.30
2022-11-29T07:06:29.265Z,1005.27
2022-11-29T07:07:29.304Z,1005.31
2022-11-29T07:08:29.465Z,1005.36
2022-11-29T07:09:29.367Z,1005.36
2022-11-29T07:10:29.414Z,1005.37
2022-11-29T07:11:29.253Z,1005.39
2022-11-29T07:12:29.264Z,1005.38
2022-11-29T07:13:29.689Z,1005.37
2022-11-29T07:14:29.484Z,1005.41
2022-11-29T07:15:29.514Z,1005.49
2022-11-29T07:16:29.404Z,1005.45
2022-11-29T07:17:29.333Z,1005.49
2022-11-29T07:18:29.307Z,1005.52
2022-11-29T07:19:29.313Z,1005.54
2022-11-29T07:20:29.524Z,1005.49
2022-11-29T07:21:29.161Z,1005.52
2022-11-29T07:22:29.334Z,1005.47
2022-11-29T07:23:29.712Z,1005.52
2022-11-29T07:24:29.973Z,1005.54
2022-11-29T07:25:29.352Z,1005.50
2022-11-29T07:26:29.980Z,1005.50
2022-11-29T07:27:29.400Z,1005.53
2022-11-29T07:28:29.783Z,1005.52
2022-11-29T07:29:29.809Z,1005.60
2022-11-29T07:30:29.182Z,1005.57
2022-11-29T07:31:29.224Z,1005.58
2022-11-29T07:32:29.190Z,1005.57
2022-11-29T07:33:29.209Z,1005.58
2022-11-29T07:34:29.218Z,1005.60
2022-11-29T07:35:29.089Z,1005.60
2022-11-29T07:36:29.449Z,1005.63
2022-11-29T07:37:29.080Z,1005.63
2022-11-29T07:38:29.068Z,1005.62
2022-11-29T07:39:29.042Z,1005.62
2022-11-29T07:40:33.121Z,1005.63
2022-11-29T07:41:29.068Z,1005.63
2022-11-29T07:42:29.274Z,1005.66
2022-11-29T07:43:29.278Z,1005.67
2022-11-29T07:44:29.288Z,1005.69
2022-11-29T07:45:29.080Z,1005.73
2022-11-29T07:46:29.186Z,1005.72
2022-11-29T07:47:34.092Z,1005.73
2022-11-29T07:48:29.317Z,1005.76
2022-11-29T07:49:29.329Z,1005.78
2022-11-29T07:50:29.325Z,1005.74
2022-11-29T07:51:29.328Z,1005.77
2022-11-29T07:52:30.475Z,1005.83
2022-11-29T07:53:29.548Z,1005.77
2022-11-29T07:54:29.786Z,1005.84
2022-11-29T07:55:29.352Z,1005.83
2022-11-29T07:56:29.275Z,1005.80
2022-11-29T07:57:29.796Z,1005.88
2022-11-29T07:58:30.042Z,1005.83
2022-11-29T07:59:29.404Z,1005.83
2022-11-29T08:00:28.977Z,1005.78
2022-11-29T08:01:29.411Z,1005.78
2022-11-29T08:02:29.948Z,1005.80
2022-11-29T08:03:29.776Z,1005.88
2022-11-29T08:04:29.206Z,1005.83
2022-11-29T08:05:29.844Z,1005.87
2022-11-29T08:06:29.082Z,1005.90
2022-11-29T08:07:28.921Z,1005.88
2022-11-29T08:08:28.852Z,1005.91
2022-11-29T08:09:28.874Z,1005.91
2022-11-29T08:10:28.896Z,1005.91
2022-11-29T08:11:28.830Z,1005.89
2022-11-29T08:12:28.846Z,1005.86
2022-11-29T08:13:28.813Z,1005.91
2022-11-29T08:14:28.816Z,1005.92
2022-11-29T08:15:28.802Z,1005.85
2022-11-29T08:16:28.849Z,1005.89
2022-11-29T08:17:28.884Z,1005.87
2022-11-29T08:18:28.785Z,1005.89
2022-11-29T08:19:28.903Z,1005.89
2022-11-29T08:20:28.774Z,1005.88
2022-11-29T08:21:28.760Z,1005.88
2022-11-29T08:22:28.880Z,1005.95
2022-11-29T08:23:28.742Z,1005.90
2022-11-29T08:24:28.739Z,1005.93
2022-11-29T08:25:28.961Z,1005.95
2022-11-29T08:26:31.700Z,1005.96
2022-11-29T08:27:28.959Z,1005.95
2022-11-29T08:28:28.720Z,1005.94
2022-11-29T08:29:28.699Z,1005.99
2022-11-29T08:30:28.713Z,1006.02
2022-11-29T08:31:28.719Z,1005.98
2022-11-29T08:32:28.827Z,1005.96
2022-11-29T08:33:29.208Z,1005.97
2022-11-29T08:34:28.690Z,1005.99
2022-11-29T08:35:29.048Z,1006.03
2022-11-29T08:36:28.676Z,1006.03
2022-11-29T08:37:28.676Z,1006.02
2022-11-29T08:38:28.717Z,1006.02
2022-11-29T08:39:28.645Z,1006.08
2022-11-29T08:40:28.841Z,1006.03
2022-11-29T08:41:28.865Z,1006.05
2022-11-29T08:42:28.646Z,1006.11
2022-11-29T08:43:28.615Z,1006.09
2022-11-29T08:44:28.613Z,1006.08
2022-11-29T08:45:28.951Z,1006.04
2022-11-29T08:46:29.097Z,1006.08
2022-11-29T08:47:29.145Z,1006.05
2022-11-29T08:48:28.915Z,1006.10
2022-11-29T08:49:28.604Z,1006.14
2022-11-29T08:50:28.595Z,1006.16
2022-11-29T08:51:28.561Z,1006.14
2022-11-29T08:52:28.558Z,1006.16
2022-11-29T08:53:28.773Z,1006.14
2022-11-29T08:54:28.545Z,1006.14
2022-11-29T08:55:28.542Z,1006.18
2022-11-29T08:57:39.720Z,1006.17
2022-11-29T08:58:28.534Z,1006.16
2022-11-29T08:59:28.612Z,1006.14
2022-11-29T09:00:28.512Z,1006.13
2022-11-29T09:01:28.784Z,1006.19
2022-11-29T09:02:28.612Z,1006.16
2022-11-29T09:03:28.502Z,1006.19
2022-11-29T09:04:28.492Z,1006.22
2022-11-29T09:05:28.462Z,1006.20
2022-11-29T09:06:28.461Z,1006.19
2022-11-29T09:07:28.479Z,1006.26
2022-11-29T09:08:29.022Z,1006.25
2022-11-29T09:09:29.032Z,1006.24
2022-11-29T09:10:28.451Z,1006.21
2022-11-29T09:11:29.040Z,1006.23
2022-11-29T09:12:28.429Z,1006.28
2022-11-29T09:13:28.687Z,1006.34
2022-11-29T09:14:28.410Z,1006.30
2022-11-29T09:15:29.210Z,1006.34
2022-11-29T09:16:28.433Z,1006.34
2022-11-29T09:17:28.388Z,1006.33
2022-11-29T09:18:28.399Z,1006.34
2022-11-29T09:19:29.148Z,1006.38
2022-11-29T09:20:28.584Z,1006.34
2022-11-29T09:21:29.199Z,1006.38
2022-11-29T09:22:29.318Z,1006.41
2022-11-29T09:23:29.328Z,1006.36
2022-11-29T09:24:28.356Z,1006.44
2022-11-29T09:25:28.330Z,1006.44
2022-11-29T09:26:28.337Z,1006.39
2022-11-29T09:27:28.327Z,1006.41
2022-11-29T09:28:28.348Z,1006.35
2022-11-29T09:29:28.577Z,1006.42
2022-11-29T09:30:28.548Z,1006.47
2022-11-29T09:31:28.445Z,1006.44
2022-11-29T09:32:28.556Z,1006.42
2022-11-29T09:33:28.586Z,1006.48
2022-11-29T09:34:28.375Z,1006.48
2022-11-29T09:35:28.278Z,1006.45
2022-11-29T09:36:29.344Z,1006.49
2022-11-29T09:37:28.254Z,1006.46
2022-11-29T09:38:28.274Z,1006.53
2022-11-29T09:39:28.265Z,1006.54
2022-11-29T09:40:28.246Z,1006.51
2022-11-29T09:41:28.243Z,1006.51
2022-11-29T09:42:28.635Z,1006.54
2022-11-29T09:43:28.664Z,1006.60
2022-11-29T09:44:28.223Z,1006.54
2022-11-29T09:45:28.219Z,1006.57
2022-11-29T09:46:28.242Z,1006.50
2022-11-29T09:47:28.192Z,1006.57
2022-11-29T09:48:28.208Z,1006.58
2022-11-29T09:49:29.094Z,1006.65
2022-11-29T09:50:28.475Z,1006.62
2022-11-29T09:51:28.162Z,1006.69
2022-11-29T09:52:28.231Z,1006.67
2022-11-29T09:53:28.162Z,1006.64
2022-11-29T09:54:28.235Z,1006.65
2022-11-29T09:55:28.131Z,1006.66
2022-11-29T09:56:28.131Z,1006.65
2022-11-29T09:57:28.128Z,1006.68
2022-11-29T09:58:28.192Z,1006.70
2022-11-29T09:59:29.160Z,1006.65
2022-11-29T10:00:28.108Z,1006.66
2022-11-29T10:01:29.006Z,1006.64
2022-11-29T10:02:29.155Z,1006.66
2022-11-29T10:03:28.959Z,1006.71
2022-11-29T10:04:28.921Z,1006.72
2022-11-29T10:05:28.089Z,1006.74
2022-11-29T10:06:28.069Z,1006.76
2022-11-29T10:07:28.107Z,1006.77
2022-11-29T10:08:28.067Z,1006.78
2022-11-29T10:09:33.354Z,1006.75
2022-11-29T10:10:28.038Z,1006.74
2022-11-29T10:11:28.034Z,1006.76
2022-11-29T10:12:28.105Z,1006.74
2022-11-29T10:13:28.036Z,1006.77
2022-11-29T10:14:28.036Z,1006.77
2022-11-29T10:15:28.024Z,1006.77
2022-11-29T10:16:28.089Z,1006.73
2022-11-29T10:17:27.987Z,1006.71
2022-11-29T10:18:27.985Z,1006.71
2022-11-29T10:19:28.023Z,1006.72
2022-11-29T10:20:27.974Z,1006.71
2022-11-29T10:21:27.953Z,1006.72
2022-11-29T10:22:27.955Z,1006.75
2022-11-29T10:23:27.945Z,1006.76
2022-11-29T10:24:27.965Z,1006.72
2022-11-29T10:25:28.076Z,1006.77
2022-11-29T10:26:33.565Z,1006.76
2022-11-29T10:27:27.923Z,1006.76
2022-11-29T10:28:27.913Z,1006.70
2022-11-29T10:29:27.926Z,1006.80
2022-11-29T10:30:27.989Z,1006.80
2022-11-29T10:31:27.910Z,1006.87
2022-11-29T10:32:27.963Z,1006.80
2022-11-29T10:33:27.921Z,1006.79
2022-11-29T10:34:27.935Z,1006.83
2022-11-29T10:35:27.933Z,1006.84
2022-11-29T10:36:27.942Z,1006.83
2022-11-29T10:37:27.852Z,1006.78
2022-11-29T10:38:31.767Z,1006.82
2022-11-29T10:39:27.859Z,1006.85
2022-11-29T10:40:28.131Z,1006.82
2022-11-29T10:41:27.823Z,1006.86
2022-11-29T10:42:27.840Z,1006.86
2022-11-29T10:43:27.819Z,1006.82
2022-11-29T10:44:27.826Z,1006.86
2022-11-29T10:45:27.859Z,1006.91
2022-11-29T10:46:28.048Z,1006.85
2022-11-29T10:47:28.058Z,1006.85
2022-11-29T10:48:27.781Z,1006.85
2022-11-29T10:49:28.245Z,1006.87
2022-11-29T10:50:27.778Z,1006.90
2022-11-29T10:51:27.761Z,1006.84
2022-11-29T10:52:27.772Z,1006.86
2022-11-29T10:53:27.751Z,1006.85
2022-11-29T10:54:27.758Z,1006.86
2022-11-29T10:55:28.476Z,1006.86
2022-11-29T10:56:27.869Z,1006.91
2022-11-29T10:57:27.777Z,1006.84
2022-11-29T10:58:28.861Z,1006.89
2022-11-29T10:59:27.778Z,1006.91
2022-11-29T11:00:27.716Z,1006.88
2022-11-29T11:01:27.845Z,1006.90
2022-11-29T11:02:27.727Z,1006.95
2022-11-29T11:03:27.717Z,1006.89
2022-11-29T11:04:27.905Z,1006.94
2022-11-29T11:05:27.821Z,1006.92
2022-11-29T11:06:27.714Z,1006.92
2022-11-29T11:08:53.641Z,1006.96
2022-11-29T11:09:53.654Z,1006.97
2022-11-29T11:10:58.605Z,1006.94
2022-11-29T11:11:53.618Z,1006.96
2022-11-29T11:12:53.676Z,1006.94
2022-11-29T11:13:53.678Z,1006.96
2022-11-29T11:14:53.663Z,1006.98
2022-11-29T11:15:53.689Z,1006.90
2022-11-29T11:16:53.726Z,1006.91
2022-11-29T11:17:53.866Z,1006.90
2022-11-29T11:18:53.877Z,1006.92
2022-11-29T11:19:53.626Z,1006.88
2022-11-29T11:20:53.652Z,1006.91
2022-11-29T11:21:53.688Z,1006.89
2022-11-29T11:22:53.537Z,1006.91
2022-11-29T11:23:53.706Z,1006.91
2022-11-29T11:24:53.546Z,1006.91
2022-11-29T11:25:53.717Z,1006.90
2022-11-29T11:26:53.508Z,1006.89
2022-11-29T11:27:53.486Z,1006.94
2022-11-29T11:28:53.486Z,1006.96
2022-11-29T11:29:53.488Z,1006.93
2022-11-29T11:30:54.041Z,1006.96
2022-11-29T11:31:54.172Z,1007.02
2022-11-29T11:32:53.562Z,1006.95
2022-11-29T11:33:53.515Z,1006.96
2022-11-29T11:34:53.524Z,1006.99
2022-11-29T11:35:53.434Z,1006.99
2022-11-29T11:36:53.435Z,1007.00
2022-11-29T11:37:54.204Z,1006.96
2022-11-29T11:38:53.423Z,1006.94
2022-11-29T11:39:53.857Z,1006.97
2022-11-29T11:40:57.900Z,1006.93
2022-11-29T11:41:53.413Z,1006.98
2022-11-29T11:42:53.403Z,1006.95
2022-11-29T11:43:53.383Z,1006.96
2022-11-29T11:44:53.403Z,1007.01
2022-11-29T11:45:53.397Z,1006.97
2022-11-29T11:46:53.450Z,1007.01
2022-11-29T11:47:53.451Z,1007.06
2022-11-29T11:48:53.492Z,1006.99
2022-11-29T11:49:53.352Z,1007.04
2022-11-29T11:50:53.369Z,1007.04
2022-11-29T11:51:53.332Z,1007.02
2022-11-29T11:52:53.391Z,1006.98
2022-11-29T11:53:53.503Z,1006.99
2022-11-29T11:54:53.319Z,1006.99
2022-11-29T11:55:53.509Z,1006.98
2022-11-29T11:56:53.311Z,1006.96
2022-11-29T11:57:53.320Z,1006.99
2022-11-29T11:58:53.331Z,1006.99
2022-11-29T11:59:53.277Z,1006.98
2022-11-29T12:01:08.634Z,1006.93
2022-11-29T12:01:53.360Z,1007.01
2022-11-29T12:02:53.412Z,1007.00
2022-11-29T12:03:53.381Z,1006.98
2022-11-29T12:04:53.369Z,1006.96
2022-11-29T12:05:53.256Z,1006.96
2022-11-29T12:06:53.278Z,1007.03
2022-11-29T12:08:07.791Z,1006.95
2022-11-29T12:08:53.619Z,1006.98